createdAt,value
2022-11-27T00:00:46.093Z,8.26
2022-11-27T00:01:46.067Z,8.31
2022-11-27T00:02:46.150Z,8.23
2022-11-27T00:03:46.161Z,8.20
2022-11-27T00:04:46.000Z,8.14
2022-11-27T00:05:46.004Z,8.17
2022-11-27T00:06:45.948Z,8.23
2022-11-27T00:07:46.041Z,8.14
2022-11-27T00:08:45.902Z,8.19
2022-11-27T00:09:45.886Z,8.06
2022-11-27T00:10:45.858Z,8.19
2022-11-27T00:11:45.837Z,8.09
2022-11-27T00:12:45.808Z,8.19
2022-11-27T00:13:45.796Z,7.95
2022-11-27T00:14:45.763Z,8.05
2022-11-27T00:15:45.784Z,8.04
2022-11-27T00:16:45.717Z,8.04
2022-11-27T00:17:45.699Z,8.05
2022-11-27T00:18:45.670Z,8.06
2022-11-27T00:19:45.647Z,8.05
2022-11-27T00:20:45.622Z,8.02
2022-11-27T00:21:45.632Z,8.06
2022-11-27T00:22:45.581Z,8.06
2022-11-27T00:23:45.558Z,8.06
2022-11-27T00:24:45.531Z,8.10
2022-11-27T00:25:45.513Z,8.13
2022-11-27T00:26:45.489Z,8.10
2022-11-27T00:27:45.466Z,7.92
2022-11-27T00:28:45.444Z,7.98
2022-11-27T00:29:45.421Z,7.95
2022-11-27T00:30:45.421Z,7.86
2022-11-27T00:31:45.671Z,7.96
2022-11-27T00:32:45.347Z,7.92
2022-11-27T00:33:45.327Z,7.96
2022-11-27T00:34:45.299Z,7.94
2022-11-27T00:35:45.274Z,7.83
2022-11-27T00:36:48.123Z,7.81
2022-11-27T00:37:45.254Z,7.77
2022-11-27T00:38:45.213Z,7.69
2022-11-27T00:39:45.186Z,7.68
2022-11-27T00:40:45.159Z,7.74
2022-11-27T00:41:45.139Z,7.76
2022-11-27T00:42:45.116Z,7.73
2022-11-27T00:43:45.677Z,7.66
2022-11-27T00:44:45.068Z,7.68
2022-11-27T00:45:45.052Z,7.73
2022-11-27T00:46:45.077Z,7.71
2022-11-27T00:47:45.002Z,7.68
2022-11-27T00:48:44.977Z,7.73
2022-11-27T00:49:44.948Z,7.74
2022-11-27T00:50:44.927Z,7.68
2022-11-27T00:51:44.905Z,7.74
2022-11-27T00:52:44.883Z,7.68
2022-11-27T00:53:44.884Z,7.57
2022-11-27T00:54:44.839Z,7.66
2022-11-27T00:55:44.811Z,7.55
2022-11-27T00:56:44.786Z,7.52
2022-11-27T00:57:44.764Z,7.55
2022-11-27T00:58:44.744Z,7.57
2022-11-27T00:59:44.719Z,7.58
2022-11-27T01:00:44.700Z,7.54
2022-11-27T01:01:44.763Z,7.47
2022-11-27T01:02:44.740Z,7.52
2022-11-27T01:03:44.627Z,7.54
2022-11-27T01:04:44.604Z,7.49
2022-11-27T01:05:44.574Z,7.43
2022-11-27T01:06:44.561Z,7.44
2022-11-27T01:07:44.590Z,7.42
2022-11-27T01:08:44.507Z,7.46
2022-11-27T01:09:44.509Z,7.44
2022-11-27T01:10:44.456Z,7.36
2022-11-27T01:11:44.439Z,7.37
2022-11-27T01:12:44.418Z,7.42
2022-11-27T01:13:44.388Z,7.42
2022-11-27T01:14:44.363Z,7.39
2022-11-27T01:15:44.393Z,7.37
2022-11-27T01:16:44.316Z,7.34
2022-11-27T01:17:44.304Z,7.28
2022-11-27T01:18:44.272Z,7.33
2022-11-27T01:19:44.245Z,7.33
2022-11-27T01:20:44.226Z,7.29
2022-11-27T01:21:44.199Z,7.24
2022-11-27T01:22:44.180Z,7.22
2022-11-27T01:23:44.151Z,7.33
2022-11-27T01:24:44.133Z,7.29
2022-11-27T01:25:44.131Z,7.29
2022-11-27T01:26:44.081Z,7.31
2022-11-27T01:27:44.055Z,7.34
2022-11-27T01:28:44.037Z,7.34
2022-11-27T01:29:44.016Z,7.24
2022-11-27T01:30:44.152Z,7.28
2022-11-27T01:31:44.056Z,7.22
2022-11-27T01:32:43.944Z,7.18
2022-11-27T01:33:43.914Z,7.24
2022-11-27T01:34:43.897Z,7.24
2022-11-27T01:35:43.864Z,7.26
2022-11-27T01:36:43.846Z,7.13
2022-11-27T01:37:43.827Z,7.19
2022-11-27T01:38:43.798Z,7.21
2022-11-27T01:39:43.783Z,7.28
2022-11-27T01:40:43.751Z,7.24
2022-11-27T01:41:43.753Z,7.33
2022-11-27T01:42:43.712Z,7.34
2022-11-27T01:43:43.688Z,7.34
2022-11-27T01:44:43.657Z,7.31
2022-11-27T01:45:43.639Z,7.29
2022-11-27T01:46:43.691Z,7.31
2022-11-27T01:47:43.590Z,7.25
2022-11-27T01:48:43.567Z,7.25
2022-11-27T01:49:43.541Z,7.31
2022-11-27T01:50:43.522Z,7.31
2022-11-27T01:51:43.490Z,7.36
2022-11-27T01:52:43.469Z,7.28
2022-11-27T01:53:43.445Z,7.22
2022-11-27T01:54:43.420Z,7.15
2022-11-27T01:55:43.396Z,7.13
2022-11-27T01:56:43.376Z,7.13
2022-11-27T01:57:43.450Z,7.13
2022-11-27T01:58:43.329Z,7.08
2022-11-27T01:59:43.306Z,7.10
2022-11-27T02:00:43.280Z,7.01
2022-11-27T02:01:43.339Z,7.07
2022-11-27T02:02:43.374Z,7.03
2022-11-27T02:03:43.209Z,7.03
2022-11-27T02:04:43.308Z,7.03
2022-11-27T02:05:43.159Z,7.06
2022-11-27T02:06:43.137Z,7.08
2022-11-27T02:07:43.354Z,7.04
2022-11-27T02:08:43.089Z,6.93
2022-11-27T02:09:43.067Z,6.88
2022-11-27T02:10:43.049Z,6.92
2022-11-27T02:11:43.035Z,6.89
2022-11-27T02:12:42.997Z,6.79
2022-11-27T02:13:42.994Z,6.83
2022-11-27T02:14:43.156Z,6.79
2022-11-27T02:15:42.986Z,6.75
2022-11-27T02:16:42.950Z,6.79
2022-11-27T02:17:42.880Z,6.82
2022-11-27T02:18:42.855Z,6.71
2022-11-27T02:19:42.833Z,6.74
2022-11-27T02:20:42.808Z,6.74
2022-11-27T02:21:42.780Z,6.65
2022-11-27T02:22:42.757Z,6.57
2022-11-27T02:23:42.731Z,6.63
2022-11-27T02:24:42.914Z,6.67
2022-11-27T02:25:42.687Z,6.61
2022-11-27T02:26:42.668Z,6.61
2022-11-27T02:27:42.639Z,6.57
2022-11-27T02:28:42.615Z,6.60
2022-11-27T02:29:42.587Z,6.56
2022-11-27T02:30:42.571Z,6.45
2022-11-27T02:31:42.631Z,6.43
2022-11-27T02:32:42.519Z,6.45
2022-11-27T02:33:42.491Z,6.49
2022-11-27T02:34:42.707Z,6.40
2022-11-27T02:35:42.447Z,6.42
2022-11-27T02:36:42.424Z,6.60
2022-11-27T02:37:42.402Z,6.56
2022-11-27T02:38:42.373Z,6.45
2022-11-27T02:39:42.348Z,6.50
2022-11-27T02:40:42.336Z,6.57
2022-11-27T02:41:42.306Z,6.43
2022-11-27T02:42:42.401Z,6.45
2022-11-27T02:43:42.256Z,6.46
2022-11-27T02:44:42.453Z,6.40
2022-11-27T02:45:42.210Z,6.43
2022-11-27T02:46:42.275Z,6.42
2022-11-27T02:47:42.155Z,6.47
2022-11-27T02:48:42.135Z,6.57
2022-11-27T02:49:42.108Z,6.55
2022-11-27T02:50:42.090Z,6.55
2022-11-27T02:51:42.063Z,6.64
2022-11-27T02:52:42.036Z,6.61
2022-11-27T02:53:42.017Z,6.60
2022-11-27T02:54:42.228Z,6.61
2022-11-27T02:55:41.968Z,6.61
2022-11-27T02:56:41.941Z,6.57
2022-11-27T02:57:41.918Z,6.65
2022-11-27T02:58:42.018Z,6.56
2022-11-27T02:59:41.874Z,6.42
2022-11-27T03:00:41.858Z,6.35
2022-11-27T03:01:41.885Z,6.37
2022-11-27T03:02:41.955Z,6.32
2022-11-27T03:03:41.771Z,6.38
2022-11-27T03:04:42.181Z,6.46
2022-11-27T03:05:41.740Z,6.46
2022-11-27T03:06:41.708Z,6.49
2022-11-27T03:07:41.767Z,6.47
2022-11-27T03:08:41.657Z,6.52
2022-11-27T03:09:41.631Z,6.57
2022-11-27T03:10:41.607Z,6.45
2022-11-27T03:11:41.581Z,6.40
2022-11-27T03:12:41.566Z,6.34
2022-11-27T03:13:41.532Z,6.30
2022-11-27T03:14:41.956Z,6.25
2022-11-27T03:15:41.503Z,6.25
2022-11-27T03:16:41.462Z,6.27
2022-11-27T03:17:41.440Z,6.27
2022-11-27T03:18:41.432Z,6.30
2022-11-27T03:19:41.387Z,6.24
2022-11-27T03:20:41.367Z,6.09
2022-11-27T03:21:41.343Z,6.08
2022-11-27T03:22:41.321Z,6.06
2022-11-27T03:23:41.291Z,6.18
2022-11-27T03:24:41.623Z,6.21
2022-11-27T03:25:41.249Z,6.21
2022-11-27T03:26:41.251Z,6.27
2022-11-27T03:27:41.199Z,6.21
2022-11-27T03:28:41.178Z,6.27
2022-11-27T03:29:41.151Z,6.34
2022-11-27T03:30:41.244Z,6.42
2022-11-27T03:31:41.190Z,6.43
2022-11-27T03:32:41.078Z,6.46
2022-11-27T03:33:41.053Z,6.38
2022-11-27T03:34:41.270Z,6.60
2022-11-27T03:35:41.006Z,6.53
2022-11-27T03:36:40.984Z,6.61
2022-11-27T03:37:40.956Z,6.56
2022-11-27T03:38:40.933Z,6.63
2022-11-27T03:39:40.909Z,6.61
2022-11-27T03:40:40.888Z,6.57
2022-11-27T03:41:40.858Z,6.55
2022-11-27T03:42:40.836Z,6.56
2022-11-27T03:43:40.814Z,6.53
2022-11-27T03:44:40.973Z,6.55
2022-11-27T03:45:40.760Z,6.57
2022-11-27T03:46:40.980Z,6.64
2022-11-27T03:47:40.793Z,6.60
2022-11-27T03:48:40.696Z,6.61
2022-11-27T03:49:40.676Z,6.67
2022-11-27T03:50:40.648Z,6.63
2022-11-27T03:51:40.620Z,6.57
2022-11-27T03:52:40.601Z,6.52
2022-11-27T03:53:40.573Z,6.56
2022-11-27T03:54:40.872Z,6.50
2022-11-27T03:55:40.537Z,6.53
2022-11-27T03:56:40.504Z,6.56
2022-11-27T03:57:40.478Z,6.57
2022-11-27T03:58:40.452Z,6.46
2022-11-27T03:59:40.429Z,6.45
2022-11-27T04:00:40.411Z,6.42
2022-11-27T04:01:40.414Z,6.42
2022-11-27T04:02:40.471Z,6.50
2022-11-27T04:03:40.428Z,6.40
2022-11-27T04:04:40.640Z,6.38
2022-11-27T04:05:40.283Z,6.42
2022-11-27T04:06:40.265Z,6.46
2022-11-27T04:07:40.295Z,6.45
2022-11-27T04:08:40.217Z,6.49
2022-11-27T04:09:40.191Z,6.45
2022-11-27T04:10:40.165Z,6.47
2022-11-27T04:11:40.146Z,6.47
2022-11-27T04:12:40.121Z,6.52
2022-11-27T04:13:40.095Z,6.37
2022-11-27T04:14:40.463Z,6.46
2022-11-27T04:15:40.049Z,6.46
2022-11-27T04:16:40.115Z,6.35
2022-11-27T04:17:39.998Z,6.32
2022-11-27T04:18:40.093Z,6.35
2022-11-27T04:19:39.946Z,6.38
2022-11-27T04:20:39.928Z,6.37
2022-11-27T04:21:39.899Z,6.38
2022-11-27T04:22:39.884Z,6.24
2022-11-27T04:23:39.851Z,6.28
2022-11-27T04:24:40.116Z,6.28
2022-11-27T04:25:39.839Z,6.28
2022-11-27T04:26:39.782Z,6.31
2022-11-27T04:27:39.760Z,6.28
2022-11-27T04:28:39.738Z,6.24
2022-11-27T04:29:39.707Z,6.28
2022-11-27T04:30:39.692Z,6.24
2022-11-27T04:31:39.687Z,6.34
2022-11-27T04:32:39.639Z,6.28
2022-11-27T04:33:39.613Z,6.24
2022-11-27T04:34:40.038Z,6.16
2022-11-27T04:35:39.566Z,6.08
2022-11-27T04:36:39.866Z,5.97
2022-11-27T04:37:39.515Z,5.98
2022-11-27T04:38:39.498Z,5.93
2022-11-27T04:39:39.466Z,5.82
2022-11-27T04:40:39.444Z,5.85
2022-11-27T04:41:39.419Z,5.79
2022-11-27T04:42:39.400Z,5.76
2022-11-27T04:43:39.370Z,5.77
2022-11-27T04:44:39.673Z,5.76
2022-11-27T04:45:39.324Z,5.73
2022-11-27T04:46:39.450Z,5.75
2022-11-27T04:47:39.281Z,5.82
2022-11-27T04:48:39.255Z,5.85
2022-11-27T04:49:39.233Z,5.77
2022-11-27T04:50:39.326Z,5.70
2022-11-27T04:51:39.182Z,5.77
2022-11-27T04:52:39.156Z,5.85
2022-11-27T04:53:39.132Z,5.82
2022-11-27T04:54:39.559Z,5.84
2022-11-27T04:55:39.084Z,5.69
2022-11-27T04:56:39.060Z,5.67
2022-11-27T04:57:39.032Z,5.75
2022-11-27T04:58:39.012Z,5.59
2022-11-27T04:59:38.984Z,5.61
2022-11-27T05:00:39.018Z,5.51
2022-11-27T05:01:38.937Z,5.54
2022-11-27T05:02:38.968Z,5.43
2022-11-27T05:03:38.893Z,5.47
2022-11-27T05:04:39.195Z,5.36
2022-11-27T05:05:38.840Z,5.44
2022-11-27T05:06:38.931Z,5.44
2022-11-27T05:07:38.845Z,5.44
2022-11-27T05:08:38.768Z,5.44
2022-11-27T05:09:38.745Z,5.58
2022-11-27T05:10:38.712Z,5.65
2022-11-27T05:11:38.693Z,5.65
2022-11-27T05:12:38.667Z,5.70
2022-11-27T05:13:38.644Z,5.67
2022-11-27T05:14:38.851Z,5.73
2022-11-27T05:15:38.596Z,5.61
2022-11-27T05:16:38.585Z,5.61
2022-11-27T05:17:38.548Z,5.51
2022-11-27T05:18:38.521Z,5.57
2022-11-27T05:19:38.501Z,5.57
2022-11-27T05:20:38.473Z,5.61
2022-11-27T05:21:38.452Z,5.62
2022-11-27T05:22:38.544Z,5.62
2022-11-27T05:23:38.400Z,5.77
2022-11-27T05:24:38.708Z,5.67
2022-11-27T05:25:38.353Z,5.57
2022-11-27T05:26:38.331Z,5.61
2022-11-27T05:27:38.303Z,5.62
2022-11-27T05:28:38.277Z,5.61
2022-11-27T05:29:38.265Z,5.51
2022-11-27T05:30:38.231Z,5.51
2022-11-27T05:31:38.277Z,5.48
2022-11-27T05:32:38.183Z,5.44
2022-11-27T05:33:38.160Z,5.44
2022-11-27T05:34:38.419Z,5.43
2022-11-27T05:35:38.108Z,5.44
2022-11-27T05:36:38.084Z,5.52
2022-11-27T05:37:38.060Z,5.51
2022-11-27T05:38:38.149Z,5.44
2022-11-27T05:39:38.009Z,5.41
2022-11-27T05:40:37.988Z,5.51
2022-11-27T05:41:37.960Z,5.48
2022-11-27T05:42:37.933Z,5.47
2022-11-27T05:43:37.906Z,5.43
2022-11-27T05:44:38.080Z,5.50
2022-11-27T05:45:37.868Z,5.57
2022-11-27T05:46:37.861Z,5.54
2022-11-27T05:47:37.820Z,5.44
2022-11-27T05:48:37.785Z,5.43
2022-11-27T05:49:37.762Z,5.40
2022-11-27T05:50:37.735Z,5.48
2022-11-27T05:51:37.716Z,5.50
2022-11-27T05:52:37.685Z,5.44
2022-11-27T05:53:37.662Z,5.44
2022-11-27T05:54:37.863Z,5.40
2022-11-27T05:55:37.613Z,5.44
2022-11-27T05:56:37.590Z,5.40
2022-11-27T05:57:37.572Z,5.40
2022-11-27T05:58:37.536Z,5.44
2022-11-27T05:59:37.514Z,5.51
2022-11-27T06:00:37.485Z,5.44
2022-11-27T06:01:37.607Z,5.43
2022-11-27T06:02:37.676Z,5.21
2022-11-27T06:03:37.488Z,5.27
2022-11-27T06:04:37.589Z,5.29
2022-11-27T06:05:37.360Z,5.30
2022-11-27T06:06:37.340Z,5.41
2022-11-27T06:07:37.431Z,5.44
2022-11-27T06:08:37.295Z,5.48
2022-11-27T06:09:37.267Z,5.44
2022-11-27T06:10:37.354Z,5.47
2022-11-27T06:11:37.218Z,5.54
2022-11-27T06:12:37.190Z,5.52
2022-11-27T06:13:37.171Z,5.57
2022-11-27T06:14:37.141Z,5.57
2022-11-27T06:15:37.122Z,5.47
2022-11-27T06:16:37.200Z,5.51
2022-11-27T06:17:37.067Z,5.44
2022-11-27T06:18:37.042Z,5.41
2022-11-27T06:19:37.022Z,5.55
2022-11-27T06:20:42.213Z,5.50
2022-11-27T06:21:36.971Z,5.43
2022-11-27T06:22:36.945Z,5.44
2022-11-27T06:23:36.923Z,5.50
2022-11-27T06:24:36.893Z,5.58
2022-11-27T06:25:36.877Z,5.55
2022-11-27T06:26:36.958Z,5.62
2022-11-27T06:27:36.829Z,5.61
2022-11-27T06:28:36.792Z,5.62
2022-11-27T06:29:36.776Z,5.52
2022-11-27T06:30:36.756Z,5.67
2022-11-27T06:31:36.796Z,5.57
2022-11-27T06:32:36.700Z,5.65
2022-11-27T06:33:36.683Z,5.62
2022-11-27T06:34:36.741Z,5.61
2022-11-27T06:35:36.630Z,5.65
2022-11-27T06:36:36.603Z,5.75
2022-11-27T06:37:36.584Z,5.62
2022-11-27T06:38:36.551Z,5.62
2022-11-27T06:39:36.538Z,5.55
2022-11-27T06:40:36.500Z,5.61
2022-11-27T06:41:36.479Z,5.65
2022-11-27T06:42:36.571Z,5.65
2022-11-27T06:43:36.432Z,5.72
2022-11-27T06:44:36.406Z,5.66
2022-11-27T06:45:36.437Z,5.73
2022-11-27T06:46:36.359Z,5.70
2022-11-27T06:47:36.335Z,5.76
2022-11-27T06:48:36.303Z,5.70
2022-11-27T06:49:36.282Z,5.67
2022-11-27T06:50:36.256Z,5.66
2022-11-27T06:51:36.235Z,5.57
2022-11-27T06:52:40.332Z,5.62
2022-11-27T06:53:36.184Z,5.66
2022-11-27T06:54:36.163Z,5.67
2022-11-27T06:55:36.132Z,5.73
2022-11-27T06:56:36.114Z,5.73
2022-11-27T06:57:36.086Z,5.75
2022-11-27T06:58:36.175Z,5.76
2022-11-27T06:59:36.040Z,5.75
2022-11-27T07:00:36.118Z,5.79
2022-11-27T07:01:36.301Z,5.73
2022-11-27T07:02:36.085Z,5.87
2022-11-27T07:03:35.940Z,5.93
2022-11-27T07:04:35.911Z,5.98
2022-11-27T07:05:35.890Z,5.88
2022-11-27T07:06:35.863Z,6.03
2022-11-27T07:07:38.538Z,6.09
2022-11-27T07:08:35.816Z,6.00
2022-11-27T07:09:35.796Z,6.05
2022-11-27T07:10:35.767Z,6.08
2022-11-27T07:11:35.747Z,6.06
2022-11-27T07:12:35.717Z,6.11
2022-11-27T07:13:35.704Z,5.98
2022-11-27T07:14:35.794Z,6.02
2022-11-27T07:15:35.645Z,6.00
2022-11-27T07:16:35.804Z,6.15
2022-11-27T07:17:35.602Z,6.15
2022-11-27T07:18:35.577Z,6.21
2022-11-27T07:19:35.550Z,6.25
2022-11-27T07:20:35.524Z,6.24
2022-11-27T07:21:35.505Z,6.25
2022-11-27T07:22:35.475Z,6.34
2022-11-27T07:23:35.453Z,6.27
2022-11-27T07:24:35.425Z,6.35
2022-11-27T07:25:35.407Z,6.25
2022-11-27T07:26:35.379Z,6.21
2022-11-27T07:27:35.360Z,6.31
2022-11-27T07:28:35.336Z,6.18
2022-11-27T07:29:35.309Z,6.25
2022-11-27T07:30:35.397Z,6.12
2022-11-27T07:31:35.387Z,6.13
2022-11-27T07:32:35.236Z,6.08
2022-11-27T07:33:35.218Z,6.05
2022-11-27T07:34:35.189Z,6.09
2022-11-27T07:35:35.168Z,5.98
2022-11-27T07:36:35.145Z,6.00
2022-11-27T07:37:35.120Z,6.08
2022-11-27T07:38:35.110Z,6.03
2022-11-27T07:40:00.737Z,6.03
2022-11-27T07:40:35.042Z,6.16
2022-11-27T07:41:35.014Z,6.21
2022-11-27T07:42:39.202Z,6.15
2022-11-27T07:43:34.979Z,6.18
2022-11-27T07:44:34.948Z,6.02
2022-11-27T07:45:35.003Z,6.09
2022-11-27T07:46:35.017Z,6.02
2022-11-27T07:47:34.875Z,6.08
2022-11-27T07:48:34.858Z,6.12
2022-11-27T07:49:34.831Z,6.15
2022-11-27T07:50:34.814Z,6.12
2022-11-27T07:51:34.779Z,6.15
2022-11-27T07:52:40.802Z,6.15
2022-11-27T07:53:34.732Z,6.25
2022-11-27T07:54:34.707Z,6.28
2022-11-27T07:55:34.684Z,6.28
2022-11-27T07:56:34.661Z,6.34
2022-11-27T07:57:34.635Z,6.37
2022-11-27T07:58:34.615Z,6.30
2022-11-27T07:59:34.584Z,6.37
2022-11-27T08:00:34.565Z,6.40
2022-11-27T08:01:34.537Z,6.43
2022-11-27T08:02:34.624Z,6.45
2022-11-27T08:03:34.493Z,6.53
2022-11-27T08:04:34.507Z,6.38
2022-11-27T08:05:34.444Z,6.53
2022-11-27T08:06:34.425Z,6.40
2022-11-27T08:07:34.451Z,6.37
2022-11-27T08:08:34.372Z,6.28
2022-11-27T08:09:34.346Z,6.31
2022-11-27T08:10:34.320Z,6.25
2022-11-27T08:11:34.296Z,6.19
2022-11-27T08:12:34.284Z,6.13
2022-11-27T08:13:34.267Z,6.19
2022-11-27T08:14:34.223Z,6.24
2022-11-27T08:15:34.204Z,6.19
2022-11-27T08:16:34.280Z,6.15
2022-11-27T08:17:34.161Z,6.03
2022-11-27T08:18:34.245Z,6.02
2022-11-27T08:19:34.125Z,5.98
2022-11-27T08:20:34.091Z,5.90
2022-11-27T08:21:34.059Z,5.97
2022-11-27T08:22:34.035Z,6.06
2022-11-27T08:23:34.007Z,6.08
2022-11-27T08:24:34.023Z,6.12
2022-11-27T08:25:33.958Z,6.25
2022-11-27T08:26:33.939Z,6.19
2022-11-27T08:27:33.914Z,6.32
2022-11-27T08:28:33.916Z,6.46
2022-11-27T08:29:34.155Z,6.56
2022-11-27T08:30:33.846Z,6.57
2022-11-27T08:31:33.930Z,6.60
2022-11-27T08:32:33.800Z,6.73
2022-11-27T08:33:33.789Z,6.68
2022-11-27T08:34:33.890Z,6.73
2022-11-27T08:35:33.725Z,6.83
2022-11-27T08:36:33.708Z,6.86
2022-11-27T08:37:33.676Z,6.89
2022-11-27T08:38:33.647Z,7.00
2022-11-27T08:39:33.631Z,7.00
2022-11-27T08:40:33.609Z,7.03
2022-11-27T08:41:33.580Z,7.03
2022-11-27T08:42:33.558Z,7.15
2022-11-27T08:43:33.533Z,7.25
2022-11-27T08:44:33.511Z,7.11
2022-11-27T08:45:33.523Z,7.11
2022-11-27T08:46:33.466Z,7.15
2022-11-27T08:47:33.441Z,7.33
2022-11-27T08:48:33.420Z,7.22
2022-11-27T08:49:33.398Z,7.24
2022-11-27T08:50:33.483Z,7.28
2022-11-27T08:51:33.348Z,7.33
2022-11-27T08:52:33.326Z,7.40
2022-11-27T08:53:33.303Z,7.37
2022-11-27T08:54:33.276Z,7.49
2022-11-27T08:55:33.255Z,7.55
2022-11-27T08:56:33.225Z,7.58
2022-11-27T08:57:33.210Z,7.47
2022-11-27T08:58:33.182Z,7.61
2022-11-27T08:59:33.169Z,7.64
2022-11-27T09:00:33.137Z,7.68
2022-11-27T09:01:33.188Z,7.60
2022-11-27T09:02:33.096Z,7.61
2022-11-27T09:03:33.176Z,7.64
2022-11-27T09:04:33.219Z,7.66
2022-11-27T09:05:33.026Z,7.68
2022-11-27T09:06:33.116Z,7.80
2022-11-27T09:07:33.026Z,7.92
2022-11-27T09:08:32.950Z,8.05
2022-11-27T09:09:32.945Z,8.20
2022-11-27T09:10:32.904Z,8.26
2022-11-27T09:11:32.881Z,8.38
2022-11-27T09:12:32.860Z,8.44
2022-11-27T09:13:32.841Z,8.32
2022-11-27T09:14:32.822Z,8.37
2022-11-27T09:15:32.795Z,8.42
2022-11-27T09:16:32.834Z,8.59
2022-11-27T09:17:32.748Z,8.63
2022-11-27T09:18:32.729Z,8.65
2022-11-27T09:19:32.722Z,8.67
2022-11-27T09:20:32.683Z,8.67
2022-11-27T09:21:32.662Z,8.55
2022-11-27T09:22:32.639Z,8.44
2022-11-27T09:23:38.612Z,8.23
2022-11-27T09:24:32.707Z,8.16
2022-11-27T09:25:32.572Z,8.14
2022-11-27T09:26:32.552Z,8.20
2022-11-27T09:27:32.528Z,8.17
2022-11-27T09:28:32.509Z,8.21
2022-11-27T09:29:32.485Z,8.34
2022-11-27T09:30:32.459Z,8.19
2022-11-27T09:31:32.487Z,8.20
2022-11-27T09:32:32.421Z,8.21
2022-11-27T09:33:32.397Z,8.20
2022-11-27T09:34:37.304Z,8.19
2022-11-27T09:35:32.411Z,8.16
2022-11-27T09:36:32.326Z,8.19
2022-11-27T09:37:32.303Z,8.21
2022-11-27T09:38:32.281Z,8.17
2022-11-27T09:39:32.271Z,8.29
2022-11-27T09:40:32.352Z,8.32
2022-11-27T09:41:32.227Z,8.29
2022-11-27T09:42:32.187Z,8.29
2022-11-27T09:43:32.167Z,8.28
2022-11-27T09:44:32.147Z,8.38
2022-11-27T09:45:32.166Z,8.39
2022-11-27T09:46:32.105Z,8.31
2022-11-27T09:47:32.075Z,8.19
2022-11-27T09:48:32.052Z,8.23
2022-11-27T09:49:32.029Z,8.37
2022-11-27T09:50:32.010Z,8.32
2022-11-27T09:51:31.987Z,8.38
2022-11-27T09:52:31.967Z,8.42
2022-11-27T09:53:31.934Z,8.49
2022-11-27T09:54:31.915Z,8.44
2022-11-27T09:55:31.894Z,8.39
2022-11-27T09:56:31.997Z,8.44
2022-11-27T09:57:31.859Z,8.50
2022-11-27T09:58:31.845Z,8.52
2022-11-27T09:59:31.800Z,8.55
2022-11-27T10:00:31.785Z,8.57
2022-11-27T10:01:38.483Z,8.50
2022-11-27T10:02:31.996Z,8.62
2022-11-27T10:03:31.789Z,8.55
2022-11-27T10:04:50.976Z,8.50
2022-11-27T10:05:31.663Z,8.52
2022-11-27T10:06:31.645Z,8.50
2022-11-27T10:07:31.683Z,8.62
2022-11-27T10:08:31.601Z,8.56
2022-11-27T10:09:31.573Z,8.62
2022-11-27T10:10:31.561Z,8.63
2022-11-27T10:11:31.535Z,8.68
2022-11-27T10:12:31.636Z,8.62
2022-11-27T10:13:31.489Z,8.57
2022-11-27T10:14:31.461Z,8.57
2022-11-27T10:15:31.436Z,8.62
2022-11-27T10:16:31.526Z,8.59
2022-11-27T10:17:31.394Z,8.67
2022-11-27T10:18:31.375Z,8.59
2022-11-27T10:19:31.348Z,8.63
2022-11-27T10:20:31.326Z,8.65
2022-11-27T10:21:31.314Z,8.65
2022-11-27T10:22:31.276Z,8.74
2022-11-27T10:23:31.257Z,8.71
2022-11-27T10:24:31.240Z,8.72
2022-11-27T10:25:31.209Z,8.75
2022-11-27T10:26:31.187Z,8.62
2022-11-27T10:27:31.167Z,8.63
2022-11-27T10:28:31.267Z,8.65
2022-11-27T10:29:31.128Z,8.67
2022-11-27T10:30:31.096Z,8.67
2022-11-27T10:31:31.238Z,8.70
2022-11-27T10:32:54.737Z,8.68
2022-11-27T10:33:31.032Z,8.63
2022-11-27T10:34:31.011Z,8.65
2022-11-27T10:35:30.990Z,8.62
2022-11-27T10:36:30.969Z,8.70
2022-11-27T10:37:30.944Z,8.67
2022-11-27T10:38:30.920Z,8.68
2022-11-27T10:39:30.898Z,8.49
2022-11-27T10:40:30.871Z,8.60
2022-11-27T10:42:30.831Z,8.59
2022-11-27T10:43:30.806Z,8.62
2022-11-27T10:44:30.900Z,8.60
2022-11-27T10:45:30.802Z,8.52
2022-11-27T10:46:30.732Z,8.42
2022-11-27T10:47:33.729Z,8.59
2022-11-27T10:48:30.692Z,8.53
2022-11-27T10:49:30.676Z,8.53
2022-11-27T10:50:30.646Z,8.60
2022-11-27T10:51:30.622Z,8.57
2022-11-27T10:52:30.600Z,8.60
2022-11-27T10:53:30.577Z,8.60
2022-11-27T10:54:30.555Z,8.65
2022-11-27T10:55:30.532Z,8.71
2022-11-27T10:56:30.511Z,8.65
2022-11-27T10:57:30.489Z,8.74
2022-11-27T10:58:30.467Z,8.67
2022-11-27T10:59:34.405Z,8.62
2022-11-27T11:00:30.534Z,8.68
2022-11-27T11:01:30.476Z,8.68
2022-11-27T11:02:30.536Z,8.63
2022-11-27T11:03:30.356Z,8.56
2022-11-27T11:04:38.928Z,8.68
2022-11-27T11:05:45.013Z,8.65
2022-11-27T11:06:30.285Z,8.59
2022-11-27T11:07:30.324Z,8.63
2022-11-27T11:08:30.249Z,8.56
2022-11-27T11:09:30.217Z,8.63
2022-11-27T11:10:30.197Z,8.59
2022-11-27T11:11:30.166Z,8.65
2022-11-27T11:12:30.154Z,8.62
2022-11-27T11:13:30.127Z,8.63
2022-11-27T11:14:30.105Z,8.67
2022-11-27T11:15:30.082Z,8.67
2022-11-27T11:16:36.104Z,8.67
2022-11-27T11:17:30.205Z,8.71
2022-11-27T11:18:30.022Z,8.67
2022-11-27T11:19:29.999Z,8.63
2022-11-27T11:20:29.964Z,8.65
2022-11-27T11:21:29.950Z,8.57
2022-11-27T11:22:29.931Z,8.65
2022-11-27T11:23:29.905Z,8.59
2022-11-27T11:24:29.884Z,8.65
2022-11-27T11:25:29.854Z,8.63
2022-11-27T11:26:29.833Z,8.65
2022-11-27T11:27:29.813Z,8.62
2022-11-27T11:28:29.790Z,8.63
2022-11-27T11:29:29.762Z,8.55
2022-11-27T11:30:29.738Z,8.59
2022-11-27T11:31:29.831Z,8.67
2022-11-27T11:32:29.695Z,8.68
2022-11-27T11:33:29.791Z,8.63
2022-11-27T11:34:29.650Z,8.67
2022-11-27T11:35:29.624Z,8.60
2022-11-27T11:36:29.603Z,8.67
2022-11-27T11:37:29.576Z,8.62
2022-11-27T11:38:29.555Z,8.68
2022-11-27T11:39:29.534Z,8.65
2022-11-27T11:40:29.519Z,8.67
2022-11-27T11:41:29.487Z,8.74
2022-11-27T11:42:29.480Z,8.71
2022-11-27T11:43:29.439Z,8.68
2022-11-27T11:44:29.419Z,8.74
2022-11-27T11:45:32.651Z,8.68
2022-11-27T11:46:29.393Z,8.62
2022-11-27T11:47:29.351Z,8.67
2022-11-27T11:48:29.333Z,8.65
2022-11-27T11:49:29.422Z,8.67
2022-11-27T11:50:29.289Z,8.63
2022-11-27T11:51:29.566Z,8.57
2022-11-27T11:52:29.242Z,8.67
2022-11-27T11:53:29.215Z,8.60
2022-11-27T11:54:29.197Z,8.67
2022-11-27T11:55:29.166Z,8.63
2022-11-27T11:56:29.149Z,8.75
2022-11-27T11:57:29.129Z,8.67
2022-11-27T11:58:29.114Z,8.62
2022-11-27T11:59:29.075Z,8.63
2022-11-27T12:00:31.579Z,8.71
2022-11-27T12:01:29.029Z,8.68
2022-11-27T12:02:29.100Z,8.63
2022-11-27T12:03:28.984Z,8.65
2022-11-27T12:04:29.087Z,8.77
2022-11-27T12:05:29.069Z,8.72
2022-11-27T12:06:28.928Z,8.85
2022-11-27T12:07:28.922Z,8.88
2022-11-27T12:08:28.880Z,8.89
2022-11-27T12:09:28.852Z,8.96
2022-11-27T12:10:28.831Z,8.95
2022-11-27T12:11:28.804Z,8.96
2022-11-27T12:12:28.784Z,8.93
2022-11-27T12:13:33.016Z,8.89
2022-11-27T12:14:28.737Z,8.92
2022-11-27T12:15:28.716Z,8.93
2022-11-27T12:16:28.732Z,8.88
2022-11-27T12:17:28.677Z,8.85
2022-11-27T12:18:28.654Z,8.93
2022-11-27T12:19:28.623Z,8.88
2022-11-27T12:20:28.605Z,9.01
2022-11-27T12:21:28.699Z,8.99
2022-11-27T12:22:28.564Z,8.92
2022-11-27T12:23:28.534Z,9.08
2022-11-27T12:24:28.515Z,9.09
2022-11-27T12:25:28.489Z,9.16
2022-11-27T12:26:28.471Z,9.18
2022-11-27T12:27:28.445Z,9.09
2022-11-27T12:28:28.423Z,9.14
2022-11-27T12:29:28.402Z,9.09
2022-11-27T12:30:28.395Z,9.06
2022-11-27T12:31:28.418Z,9.06
2022-11-27T12:32:28.345Z,9.06
2022-11-27T12:33:28.314Z,9.04
2022-11-27T12:34:28.287Z,8.90
2022-11-27T12:35:28.264Z,9.01
2022-11-27T12:36:28.246Z,8.98
2022-11-27T12:37:28.334Z,8.95
2022-11-27T12:38:28.198Z,8.99
2022-11-27T12:39:28.170Z,8.99
2022-11-27T12:40:28.156Z,8.99
2022-11-27T12:41:28.130Z,8.95
2022-11-27T12:42:28.105Z,9.04
2022-11-27T12:43:28.081Z,8.98
2022-11-27T12:44:28.056Z,9.09
2022-11-27T12:45:28.053Z,9.06
2022-11-27T12:46:28.101Z,9.06
2022-11-27T12:47:27.992Z,9.06
2022-11-27T12:48:27.975Z,9.12
2022-11-27T12:49:27.947Z,9.09
2022-11-27T12:50:27.926Z,9.11
2022-11-27T12:51:27.907Z,9.08
2022-11-27T12:52:27.879Z,9.11
2022-11-27T12:53:27.975Z,9.11
2022-11-27T12:54:27.840Z,8.99
2022-11-27T12:55:27.814Z,9.09
2022-11-27T12:56:27.805Z,9.11
2022-11-27T12:57:27.786Z,9.06
2022-11-27T12:58:27.744Z,9.15
2022-11-27T12:59:27.726Z,9.15
2022-11-27T13:00:27.702Z,9.18
2022-11-27T13:01:27.821Z,9.19
2022-11-27T13:02:27.770Z,9.14
2022-11-27T13:03:27.631Z,9.08
2022-11-27T13:04:27.614Z,9.19
2022-11-27T13:05:27.586Z,9.14
2022-11-27T13:06:27.568Z,9.23
2022-11-27T13:07:27.599Z,9.19
2022-11-27T13:08:27.535Z,9.19
2022-11-27T13:09:27.612Z,9.24
2022-11-27T13:10:27.476Z,9.22
2022-11-27T13:11:27.468Z,9.16
2022-11-27T13:12:27.432Z,9.22
2022-11-27T13:13:27.404Z,9.16
2022-11-27T13:14:27.404Z,9.18
2022-11-27T13:15:27.369Z,9.19
2022-11-27T13:16:27.484Z,9.26
2022-11-27T13:17:27.318Z,9.24
2022-11-27T13:18:27.295Z,9.23
2022-11-27T13:19:27.274Z,9.19